Time;durP1;ratioP1;P1;durP2;ratioP2;P2;SDS_P1;SDS_P2;PMS_P1;PMS_P2;Temp;Humidity;BMP_temperature;BMP_pressure;BME280_temperature;BME280_humidity;BME280_pressure;Samples;Min_cycle;Max_cycle;Signal;HPM_P1;HPM_P2
2023/12/15 00:01:15;;;;;;;21.20;14.50;;;;;;;-2.52;100.00;99933.92;87056;279;136925;-73
2023/12/15 00:03:17;;;;;;;18.90;13.60;;;;;;;-2.51;100.00;99942.15;87390;275;24010;-73
2023/12/15 00:05:19;;;;;;;22.90;15.50;;;;;;;-2.50;100.00;99942.09;87094;272;137252;-71
2023/12/15 00:07:21;;;;;;;15.50;13.10;;;;;;;-2.46;100.00;99941.98;87094;275;22564;-72
2023/12/15 00:09:25;;;;;;;24.30;13.40;;;;;;;-2.44;100.00;99936.07;87302;271;137240;-72
2023/12/15 00:11:27;;;;;;;13.90;10.40;;;;;;;-2.43;100.00;99941.05;87467;267;25186;-73
2023/12/15 00:13:29;;;;;;;20.60;12.50;;;;;;;-2.51;100.00;99933.96;87086;268;137353;-72
2023/12/15 00:15:31;;;;;;;20.80;10.90;;;;;;;-2.46;100.00;99948.78;87132;280;22584;-73
2023/12/15 00:17:33;;;;;;;28.60;12.10;;;;;;;-2.51;100.00;99953.32;87191;279;138613;-74
2023/12/15 00:19:36;;;;;;;22.40;11.80;;;;;;;-2.64;100.00;99948.32;87185;272;24014;-73
2023/12/15 00:21:38;;;;;;;16.60;10.20;;;;;;;-2.69;100.00;99956.54;87262;279;137473;-73
2023/12/15 00:23:40;;;;;;;16.20;9.50;;;;;;;-2.73;100.00;99958.25;87347;279;25114;-74
2023/12/15 00:25:42;;;;;;;16.60;11.00;;;;;;;-2.77;100.00;99967.55;87210;279;136895;-75
2023/12/15 00:27:43;;;;;;;17.60;11.00;;;;;;;-2.80;100.00;99969.48;87216;275;22574;-76
2023/12/15 00:29:46;;;;;;;14.90;8.90;;;;;;;-2.80;100.00;99974.55;87284;278;137325;-73
2023/12/15 00:31:48;;;;;;;22.80;12.10;;;;;;;-2.79;100.00;99983.15;87330;271;22580;-75
2023/12/15 00:33:49;;;;;;;12.70;10.40;;;;;;;-2.76;100.00;99989.06;87121;280;137263;-73
2023/12/15 00:35:52;;;;;;;18.40;12.80;;;;;;;-2.75;100.00;99992.25;87237;283;22597;-72
2023/12/15 00:37:55;;;;;;;20.50;12.10;;;;;;;-2.76;100.00;99989.89;87081;271;138480;-72
2023/12/15 00:39:57;;;;;;;14.70;10.20;;;;;;;-2.76;100.00;99999.11;87265;267;23886;-73
2023/12/15 00:41:59;;;;;;;13.40;10.00;;;;;;;-2.76;100.00;100000.30;87120;271;136882;-73
2023/12/15 00:44:04;;;;;;;17.00;9.90;;;;;;;-2.80;100.00;100006.88;87089;279;22573;-73
2023/12/15 00:46:07;;;;;;;19.20;10.70;;;;;;;-2.81;100.00;100000.89;87088;276;24053;-71
2023/12/15 00:48:11;;;;;;;17.20;9.90;;;;;;;-2.80;100.00;100008.14;87062;272;138722;-73
2023/12/15 00:50:15;;;;;;;15.70;10.30;;;;;;;-2.81;100.00;100016.20;87178;279;24001;-72
2023/12/15 00:52:17;;;;;;;19.90;11.60;;;;;;;-2.82;100.00;100016.79;87261;275;137558;-70
2023/12/15 00:54:19;;;;;;;15.80;10.90;;;;;;;-2.82;100.00;100018.04;87156;272;22678;-73
2023/12/15 00:56:23;;;;;;;14.00;9.80;;;;;;;-2.83;100.00;100021.92;87010;274;137348;-73
2023/12/15 00:58:26;;;;;;;21.10;12.20;;;;;;;-2.83;100.00;100024.83;87544;271;22561;-72
2023/12/15 01:00:28;;;;;;;21.80;10.30;;;;;;;-2.81;100.00;100023.70;87194;280;137136;-73
2023/12/15 01:02:31;;;;;;;21.60;12.80;;;;;;;-2.78;100.00;100029.22;87129;276;22644;-70
2023/12/15 01:04:33;;;;;;;22.00;10.10;;;;;;;-2.75;100.00;100028.80;87109;272;137255;-72
2023/12/15 01:06:36;;;;;;;18.40;11.00;;;;;;;-2.71;100.00;100036.55;86977;273;22590;-72
2023/12/15 01:08:38;;;;;;;20.80;11.50;;;;;;;-2.68;100.00;100036.66;88711;264;137421;-71
2023/12/15 01:10:40;;;;;;;21.10;8.80;;;;;;;-2.65;100.00;100037.84;87437;271;22555;-73
2023/12/15 01:12:42;;;;;;;15.10;9.40;;;;;;;-2.65;100.00;100040.64;87288;267;138569;-73
2023/12/15 01:14:44;;;;;;;15.00;8.70;;;;;;;-2.72;100.00;100035.34;87297;272;24052;-72
2023/12/15 01:16:48;;;;;;;15.90;9.90;;;;;;;-2.77;100.00;100045.44;87186;272;137415;-71
2023/12/15 01:18:50;;;;;;;13.30;9.60;;;;;;;-2.82;100.00;100039.88;87414;271;22565;-69
2023/12/15 01:20:52;;;;;;;20.10;8.50;;;;;;;-2.82;100.00;100044.81;87233;268;137143;-72
2023/12/15 01:22:54;;;;;;;16.70;9.30;;;;;;;-2.84;100.00;100050.66;87353;272;22638;-71
2023/12/15 01:24:56;;;;;;;11.20;8.60;;;;;;;-2.86;100.00;100050.98;87163;272;137223;-71
2023/12/15 01:26:58;;;;;;;16.10;8.20;;;;;;;-2.89;100.00;100040.76;87230;279;22560;-73
2023/12/15 01:29:00;;;;;;;13.80;9.40;;;;;;;-2.92;100.00;100049.66;87151;275;137086;-73
2023/12/15 01:31:02;;;;;;;16.80;9.40;;;;;;;-2.94;100.00;100051.21;87262;268;24132;-72
2023/12/15 01:33:05;;;;;;;9.40;7.20;;;;;;;-2.96;100.00;100054.80;87140;279;138126;-75
2023/12/15 01:35:08;;;;;;;14.70;8.00;;;;;;;-2.98;100.00;100054.55;87218;272;22576;-72
2023/12/15 01:37:10;;;;;;;15.90;9.00;;;;;;;-3.02;100.00;100048.81;87076;271;137172;-73
2023/12/15 01:39:12;;;;;;;15.30;9.40;;;;;;;-3.05;100.00;100050.75;87273;272;25192;-71
2023/12/15 01:41:14;;;;;;;13.70;9.90;;;;;;;-3.04;100.00;100054.70;87215;272;138900;-71
2023/12/15 01:43:16;;;;;;;16.00;8.70;;;;;;;-3.04;100.00;100050.30;87536;272;24027;-73
2023/12/15 01:45:18;;;;;;;21.40;12.40;;;;;;;-3.03;100.00;100054.76;87141;272;136938;-72
2023/12/15 01:47:24;;;;;;;10.60;9.60;;;;;;;-2.99;100.00;100062.70;87319;272;25233;-72
2023/12/15 01:49:29;;;;;;;22.00;11.00;;;;;;;-2.97;100.00;100063.20;87181;272;138479;-74
2023/12/15 01:51:31;;;;;;;17.20;9.70;;;;;;;-2.95;100.00;100066.21;87243;264;24083;-73
2023/12/15 01:53:35;;;;;;;14.70;10.20;;;;;;;-2.92;100.00;100079.58;87112;279;136968;-75
2023/12/15 01:55:38;;;;;;;16.80;9.70;;;;;;;-2.90;100.00;100087.08;87184;279;25238;-75
2023/12/15 01:57:43;;;;;;;14.50;8.60;;;;;;;-2.88;100.00;100095.60;87102;271;137421;-74
2023/12/15 01:59:48;;;;;;;18.80;9.80;;;;;;;-2.86;100.00;100111.98;87173;274;24186;-75
2023/12/15 02:01:50;;;;;;;18.40;9.40;;;;;;;-2.85;100.00;100120.98;87176;275;137175;-72
2023/12/15 02:03:52;;;;;;;15.60;11.50;;;;;;;-2.83;100.00;100129.18;87237;272;22531;-73
2023/12/15 02:05:54;;;;;;;19.80;9.80;;;;;;;-2.82;100.00;100139.23;87113;279;137891;-73
2023/12/15 02:07:59;;;;;;;16.20;9.30;;;;;;;-2.80;100.00;100144.43;87102;268;25097;-73
2023/12/15 02:10:01;;;;;;;11.60;8.80;;;;;;;-2.77;100.00;100148.77;87109;275;137755;-75
2023/12/15 02:12:06;;;;;;;16.70;9.60;;;;;;;-2.75;100.00;100150.17;87657;273;25137;-73
2023/12/15 02:14:08;;;;;;;20.90;10.60;;;;;;;-2.78;100.00;100152.48;87448;275;25239;-71
2023/12/15 02:16:10;;;;;;;18.20;10.00;;;;;;;-2.80;100.00;100156.97;87041;279;138828;-75
2023/12/15 02:18:12;;;;;;;15.20;9.60;;;;;;;-2.81;100.00;100151.15;87290;279;22579;-74
2023/12/15 02:20:15;;;;;;;13.20;8.00;;;;;;;-2.80;100.00;100157.54;87156;279;137852;-74
2023/12/15 02:22:23;;;;;;;16.00;9.00;;;;;;;-2.81;100.00;100156.16;87179;268;25286;-73
2023/12/15 02:24:25;;;;;;;11.30;8.40;;;;;;;-2.81;100.00;100165.21;87036;268;137364;-69
2023/12/15 02:26:28;;;;;;;16.20;8.30;;;;;;;-2.80;100.00;100164.16;87309;272;25246;-72
2023/12/15 02:28:30;;;;;;;17.80;9.50;;;;;;;-2.80;100.00;100174.56;87169;275;137087;-72
2023/12/15 02:30:32;;;;;;;19.30;9.90;;;;;;;-2.80;100.00;100174.73;87200;272;22589;-72
2023/12/15 02:32:34;;;;;;;13.00;9.10;;;;;;;-2.80;100.00;100184.79;87201;272;137028;-70
2023/12/15 02:34:36;;;;;;;18.50;8.60;;;;;;;-2.78;100.00;100193.91;87250;272;25108;-70
2023/12/15 02:36:38;;;;;;;17.50;8.40;;;;;;;-2.77;100.00;100199.41;87107;268;138332;-70
2023/12/15 02:38:40;;;;;;;14.90;9.40;;;;;;;-2.75;100.00;100204.64;87318;271;22570;-71
2023/12/15 02:40:44;;;;;;;15.20;10.40;;;;;;;-2.73;100.00;100217.38;87205;279;137251;-74
2023/12/15 02:42:47;;;;;;;13.60;9.30;;;;;;;-2.75;100.00;100214.14;87323;271;22563;-72
2023/12/15 02:44:49;;;;;;;13.70;8.80;;;;;;;-2.76;100.00;100223.84;87127;272;137090;-70
2023/12/15 02:46:51;;;;;;;19.70;10.00;;;;;;;-2.80;100.00;100231.61;87103;273;24027;-70
2023/12/15 02:48:53;;;;;;;17.10;8.50;;;;;;;-2.83;100.00;100241.40;87249;275;137472;-72
2023/12/15 02:50:56;;;;;;;20.90;9.30;;;;;;;-2.85;100.00;100251.45;87338;267;24001;-73
2023/12/15 02:52:59;;;;;;;18.50;9.50;;;;;;;-2.86;100.00;100260.68;87151;268;138155;-70
2023/12/15 02:55:01;;;;;;;15.70;8.30;;;;;;;-2.89;100.00;100263.48;87279;279;24027;-71
2023/12/15 02:57:03;;;;;;;13.80;8.30;;;;;;;-2.91;100.00;100262.09;87171;275;137289;-71
2023/12/15 02:59:05;;;;;;;16.20;10.10;;;;;;;-2.93;100.00;100266.41;87396;271;22564;-72
2023/12/15 03:01:09;;;;;;;15.80;10.80;;;;;;;-2.95;100.00;100270.29;87085;272;137466;-71
2023/12/15 03:03:11;;;;;;;19.00;8.40;;;;;;;-2.91;100.00;100274.45;87210;271;22608;-73
2023/12/15 03:05:13;;;;;;;19.90;8.30;;;;;;;-2.89;100.00;100277.95;86916;279;137173;-72
2023/12/15 03:07:15;;;;;;;19.30;9.70;;;;;;;-2.86;100.00;100277.73;87109;267;24042;-73
2023/12/15 03:09:17;;;;;;;16.50;9.90;;;;;;;-2.85;100.00;100278.89;87132;274;137318;-73
2023/12/15 03:11:19;;;;;;;16.70;8.70;;;;;;;-2.83;100.00;100280.14;87013;271;22562;-72
2023/12/15 03:13:21;;;;;;;15.10;8.40;;;;;;;-2.81;100.00;100276.91;87116;271;138376;-73
2023/12/15 03:15:26;;;;;;;18.20;9.10;;;;;;;-2.82;100.00;100282.16;87214;272;25290;-70
2023/12/15 03:17:30;;;;;;;16.30;9.20;;;;;;;-2.82;100.00;100279.07;87055;272;138658;-71
2023/12/15 03:19:32;;;;;;;14.60;8.40;;;;;;;-2.84;100.00;100285.77;87327;272;22579;-71
2023/12/15 03:21:34;;;;;;;17.80;8.90;;;;;;;-2.85;100.00;100290.73;87101;279;137053;-73
2023/12/15 03:23:36;;;;;;;18.30;8.80;;;;;;;-2.85;100.00;100294.55;87259;279;22657;-74
2023/12/15 03:25:38;;;;;;;27.20;10.20;;;;;;;-2.81;100.00;100293.89;87253;267;137536;-71
2023/12/15 03:27:40;;;;;;;14.20;8.70;;;;;;;-2.77;100.00;100295.55;87284;268;22575;-72
2023/12/15 03:29:43;;;;;;;17.20;8.50;;;;;;;-2.76;100.00;100298.95;87152;271;137301;-73
2023/12/15 03:31:45;;;;;;;19.30;9.10;;;;;;;-2.77;100.00;100305.11;87418;275;22570;-72
2023/12/15 03:33:47;;;;;;;14.70;8.70;;;;;;;-2.79;100.00;100301.29;87213;276;138361;-72
2023/12/15 03:35:49;;;;;;;19.70;10.20;;;;;;;-2.89;100.00;100295.68;87209;268;24010;-71
2023/12/15 03:37:51;;;;;;;24.10;10.00;;;;;;;-2.80;100.00;100301.88;87044;264;137225;-71
2023/12/15 03:39:53;;;;;;;16.60;9.70;;;;;;;-2.78;100.00;100302.23;87267;279;22583;-71
2023/12/15 03:41:55;;;;;;;22.20;10.40;;;;;;;-2.75;100.00;100303.27;87175;279;138109;-72
2023/12/15 03:43:57;;;;;;;22.10;9.40;;;;;;;-2.72;100.00;100306.88;87292;279;22533;-75
2023/12/15 03:46:01;;;;;;;20.50;9.60;;;;;;;-2.71;100.00;100300.21;87151;272;137063;-72
2023/12/15 03:48:03;;;;;;;13.70;8.70;;;;;;;-2.73;100.00;100299.13;86967;279;137574;-69
2023/12/15 03:50:06;;;;;;;21.70;9.20;;;;;;;-2.75;100.00;100305.15;87233;281;22565;-74
2023/12/15 03:52:08;;;;;;;17.50;9.20;;;;;;;-2.77;100.00;100302.69;87247;272;137352;-73
2023/12/15 03:54:10;;;;;;;11.80;9.50;;;;;;;-2.75;100.00;100300.79;87378;271;23969;-73
2023/12/15 03:56:13;;;;;;;15.90;8.90;;;;;;;-2.73;100.00;100297.41;87250;271;137377;-70
2023/12/15 03:58:15;;;;;;;15.30;9.00;;;;;;;-2.72;100.00;100290.88;87324;275;22543;-71
2023/12/15 04:00:18;;;;;;;16.80;9.20;;;;;;;-2.69;100.00;100284.79;87320;279;139033;-72
2023/12/15 04:02:20;;;;;;;21.30;9.30;;;;;;;-2.67;100.00;100283.26;87271;279;25199;-72
2023/12/15 04:04:23;;;;;;;19.20;9.50;;;;;;;-2.65;100.00;100281.73;87168;268;137188;-71
2023/12/15 04:06:25;;;;;;;14.80;8.50;;;;;;;-2.65;100.00;100285.20;87475;271;22575;-71
2023/12/15 04:08:28;;;;;;;20.20;10.00;;;;;;;-2.66;100.00;100293.42;87369;274;137339;-73
2023/12/15 04:10:30;;;;;;;19.50;10.10;;;;;;;-2.66;100.00;100297.61;87883;267;23022;-71
2023/12/15 04:12:32;;;;;;;17.00;10.50;;;;;;;-2.64;100.00;100302.36;87598;267;138265;-72
2023/12/15 04:14:34;;;;;;;19.90;9.80;;;;;;;-2.62;100.00;100301.86;87405;279;24029;-72
2023/12/15 04:16:40;;;;;;;15.00;8.10;;;;;;;-2.58;100.00;100313.42;87081;272;137211;-72
2023/12/15 04:18:42;;;;;;;20.50;10.50;;;;;;;-2.56;100.00;100315.20;87258;279;22572;-71
2023/12/15 04:20:44;;;;;;;16.70;9.90;;;;;;;-2.54;100.00;100320.81;87158;275;137140;-73
2023/12/15 04:22:46;;;;;;;16.20;10.90;;;;;;;-2.54;100.00;100326.55;87226;279;24036;-72
2023/12/15 04:24:49;;;;;;;15.40;9.30;;;;;;;-2.52;100.00;100328.88;87146;272;138480;-73
2023/12/15 04:26:51;;;;;;;26.50;12.90;;;;;;;-2.49;100.00;100326.09;87251;276;24457;-69
2023/12/15 04:29:03;;;;;;;16.30;10.20;;;;;;;-2.46;100.00;100329.17;87093;272;137397;-72
2023/12/15 04:31:17;;;;;;;17.60;11.10;;;;;;;-2.45;100.00;100327.88;87408;268;23884;-73
2023/12/15 04:33:18;;;;;;;20.90;9.80;;;;;;;-2.44;100.00;100334.91;87394;280;137247;-71
2023/12/15 04:35:21;;;;;;;19.90;9.10;;;;;;;-2.42;100.00;100333.90;87602;271;22656;-71
2023/12/15 04:37:24;;;;;;;22.10;9.50;;;;;;;-2.39;100.00;100333.56;87391;269;137036;-71
2023/12/15 04:39:26;;;;;;;14.10;8.90;;;;;;;-2.37;100.00;100334.41;87721;271;22570;-71
2023/12/15 04:41:28;;;;;;;17.60;8.00;;;;;;;-2.35;100.00;100333.96;86848;279;684451;-73
2023/12/15 04:43:30;;;;;;;20.80;8.60;;;;;;;-2.35;100.00;100340.19;87348;276;22570;-71
2023/12/15 04:45:32;;;;;;;13.60;9.30;;;;;;;-2.34;100.00;100338.92;87345;268;137293;-73
2023/12/15 04:47:35;;;;;;;11.20;7.90;;;;;;;-2.35;100.00;100343.52;87671;265;24835;-72
2023/12/15 04:49:38;;;;;;;18.10;10.50;;;;;;;-2.35;100.00;100345.80;87535;271;137089;-75
2023/12/15 04:51:40;;;;;;;19.20;8.70;;;;;;;-2.33;100.00;100348.63;87422;275;22845;-74
2023/12/15 04:53:45;;;;;;;21.30;9.50;;;;;;;-2.33;100.00;100351.95;87191;279;137286;-73
2023/12/15 04:55:46;;;;;;;16.10;8.80;;;;;;;-2.39;100.00;100357.41;87212;272;22513;-71
2023/12/15 04:57:48;;;;;;;19.30;8.60;;;;;;;-2.43;100.00;100358.52;87239;275;138508;-72
2023/12/15 04:59:50;;;;;;;18.30;9.40;;;;;;;-2.44;100.00;100359.43;87248;280;22574;-72
2023/12/15 05:01:52;;;;;;;31.20;11.30;;;;;;;-2.46;100.00;100365.14;87027;272;138336;-73
2023/12/15 05:03:54;;;;;;;10.60;8.70;;;;;;;-2.47;100.00;100375.86;87119;268;24232;-73
2023/12/15 05:05:56;;;;;;;16.90;10.20;;;;;;;-2.46;100.00;100381.36;87151;279;136853;-74
2023/12/15 05:07:58;;;;;;;11.40;8.50;;;;;;;-2.44;100.00;100390.57;87142;272;22588;-72
2023/12/15 05:10:03;;;;;;;20.50;9.60;;;;;;;-2.50;100.00;100379.54;87045;271;22572;-73
2023/12/15 05:12:08;;;;;;;15.90;9.20;;;;;;;-2.39;100.00;100405.60;87078;276;137298;-71
2023/12/15 05:14:11;;;;;;;18.00;10.50;;;;;;;-2.39;100.00;100410.77;87134;272;23225;-71
2023/12/15 05:16:13;;;;;;;16.00;9.00;;;;;;;-2.38;100.00;100416.11;87612;272;136967;-71
2023/12/15 05:18:16;;;;;;;15.30;9.70;;;;;;;-2.39;100.00;100430.11;87108;279;23323;-71
2023/12/15 05:20:20;;;;;;;19.40;8.70;;;;;;;-2.40;100.00;100432.79;87281;272;137707;-69
2023/12/15 05:22:22;;;;;;;10.40;8.10;;;;;;;-2.39;100.00;100440.94;87102;272;22575;-73
2023/12/15 05:24:24;;;;;;;17.90;10.50;;;;;;;-2.39;100.00;100444.40;86969;279;138365;-72
2023/12/15 05:26:26;;;;;;;14.70;9.20;;;;;;;-2.41;100.00;100448.16;87163;271;25346;-73
2023/12/15 05:28:28;;;;;;;10.80;7.90;;;;;;;-2.42;100.00;100447.20;87087;273;138432;-72
2023/12/15 05:30:30;;;;;;;18.60;10.00;;;;;;;-2.41;100.00;100445.90;87188;272;25079;-70
2023/12/15 05:32:32;;;;;;;16.40;9.90;;;;;;;-2.41;100.00;100448.33;87084;273;137415;-72
2023/12/15 05:34:34;;;;;;;15.20;9.00;;;;;;;-2.40;100.00;100454.58;87079;272;23991;-72
2023/12/15 05:36:36;;;;;;;16.00;8.80;;;;;;;-2.42;100.00;100457.44;87055;271;138562;-74
2023/12/15 05:38:38;;;;;;;15.90;9.80;;;;;;;-2.43;100.00;100461.57;87262;267;22636;-75
2023/12/15 05:40:40;;;;;;;19.30;9.70;;;;;;;-2.45;100.00;100462.73;87057;271;137002;-76
2023/12/15 05:42:42;;;;;;;17.20;11.00;;;;;;;-2.44;100.00;100464.75;86991;268;24065;-72
2023/12/15 05:44:44;;;;;;;20.40;9.90;;;;;;;-2.42;100.00;100467.70;86918;279;138576;-71
2023/12/15 05:46:46;;;;;;;20.20;11.10;;;;;;;-2.37;100.00;100476.29;86954;271;25224;-74
2023/12/15 05:48:48;;;;;;;14.60;9.40;;;;;;;-2.33;100.00;100485.25;86987;279;139679;-73
2023/12/15 05:50:50;;;;;;;15.00;10.60;;;;;;;-2.31;100.00;100485.26;87228;270;24010;-72
2023/12/15 05:52:52;;;;;;;19.60;9.60;;;;;;;-2.31;100.00;100477.11;86889;275;138145;-68
2023/12/15 05:54:55;;;;;;;21.80;11.60;;;;;;;-2.21;100.00;100488.08;86966;268;24109;-71
2023/12/15 05:56:56;;;;;;;16.50;12.10;;;;;;;-2.26;100.00;100483.22;86869;268;137572;-70
2023/12/15 05:58:58;;;;;;;18.10;9.60;;;;;;;-2.17;100.00;100500.58;86929;268;22529;-73
2023/12/15 06:01:02;;;;;;;19.00;10.00;;;;;;;-2.16;100.00;100504.45;86827;271;137924;-72
2023/12/15 06:03:04;;;;;;;30.80;12.80;;;;;;;-2.17;100.00;100502.46;86968;268;23752;-70
2023/12/15 06:05:06;;;;;;;21.10;10.10;;;;;;;-2.15;100.00;100508.92;87000;272;137679;-72
2023/12/15 06:07:11;;;;;;;12.60;8.70;;;;;;;-2.13;100.00;100513.18;86997;272;22542;-71
2023/12/15 06:09:13;;;;;;;25.80;13.50;;;;;;;-2.15;100.00;100517.84;86930;271;137285;-71
2023/12/15 06:11:15;;;;;;;23.20;11.90;;;;;;;-2.16;100.00;100520.15;86999;268;25255;-71
2023/12/15 06:13:17;;;;;;;16.10;9.70;;;;;;;-2.13;100.00;100522.78;86963;275;137464;-72
2023/12/15 06:15:19;;;;;;;23.20;11.30;;;;;;;-2.12;100.00;100521.46;87032;279;22565;-72
2023/12/15 06:17:20;;;;;;;13.40;9.80;;;;;;;-2.11;100.00;100525.58;87070;267;137167;-70
2023/12/15 06:19:23;;;;;;;17.80;10.80;;;;;;;-2.09;100.00;100529.08;87113;278;23998;-71
2023/12/15 06:21:26;;;;;;;15.70;10.10;;;;;;;-2.04;100.00;100525.31;87017;271;137452;-72
2023/12/15 06:23:28;;;;;;;14.80;11.70;;;;;;;-2.01;100.00;100529.80;86972;273;24041;-73
2023/12/15 06:25:30;;;;;;;18.30;10.90;;;;;;;-2.01;100.00;100536.58;87005;272;137893;-69
2023/12/15 06:27:34;;;;;;;18.70;9.30;;;;;;;-2.01;100.00;100540.06;87039;272;22590;-70
2023/12/15 06:29:36;;;;;;;18.50;11.30;;;;;;;-1.99;100.00;100540.77;87069;271;136926;-71
2023/12/15 06:31:45;;;;;;;12.70;10.20;;;;;;;-1.94;100.00;100542.58;87148;279;22766;-73
2023/12/15 06:33:47;;;;;;;18.90;11.60;;;;;;;-1.91;100.00;100546.23;87248;267;137421;-71
2023/12/15 06:35:49;;;;;;;25.80;11.80;;;;;;;-1.87;100.00;100546.45;87100;268;22647;-73
2023/12/15 06:37:51;;;;;;;12.20;10.20;;;;;;;-1.83;100.00;100546.83;86969;273;138576;-73
2023/12/15 06:39:55;;;;;;;15.70;9.70;;;;;;;-1.79;100.00;100548.36;87064;271;22565;-72
2023/12/15 06:41:58;;;;;;;18.10;10.60;;;;;;;-1.77;100.00;100548.88;87865;280;137981;-70
2023/12/15 06:44:00;;;;;;;18.70;11.60;;;;;;;-1.72;100.00;100544.21;87293;272;22575;-73
2023/12/15 06:46:04;;;;;;;18.60;10.90;;;;;;;-1.70;100.00;100550.33;87087;270;22570;-73
2023/12/15 06:48:06;;;;;;;15.40;10.40;;;;;;;-1.67;100.00;100558.02;87027;271;137709;-71
2023/12/15 06:50:09;;;;;;;20.60;12.90;;;;;;;-1.73;100.00;100547.41;86804;271;22668;-71
2023/12/15 06:52:11;;;;;;;17.80;11.20;;;;;;;-1.63;100.00;100561.56;89824;267;138952;-72
2023/12/15 06:54:12;;;;;;;10.90;9.30;;;;;;;-1.59;100.00;100566.15;90192;263;22415;-72
2023/12/15 06:56:14;;;;;;;18.60;11.80;;;;;;;-1.53;100.00;100569.41;89949;264;137142;-72
2023/12/15 06:58:16;;;;;;;12.40;9.70;;;;;;;-1.48;100.00;100572.38;89939;268;22343;-71
2023/12/15 07:00:18;;;;;;;14.40;11.80;;;;;;;-1.41;100.00;100573.11;87288;272;138406;-72
2023/12/15 07:02:20;;;;;;;18.50;11.70;;;;;;;-1.35;100.00;100574.48;86975;272;22562;-71
2023/12/15 07:04:22;;;;;;;13.70;10.60;;;;;;;-1.30;100.00;100575.69;86978;272;137604;-71
2023/12/15 07:06:24;;;;;;;13.40;9.50;;;;;;;-1.25;100.00;100575.36;87160;279;22567;-71
2023/12/15 07:08:26;;;;;;;12.80;9.70;;;;;;;-1.23;100.00;100575.55;87007;279;138771;-71
2023/12/15 07:10:29;;;;;;;16.50;10.30;;;;;;;-1.22;100.00;100581.77;87094;268;25764;-74
2023/12/15 07:12:31;;;;;;;18.40;12.20;;;;;;;-1.21;100.00;100586.42;87073;273;140232;-73
2023/12/15 07:14:33;;;;;;;24.40;11.80;;;;;;;-1.19;100.00;100591.48;87168;267;22571;-70
2023/12/15 07:16:36;;;;;;;14.70;10.50;;;;;;;-1.16;100.00;100592.86;87204;272;137336;-71
2023/12/15 07:18:39;;;;;;;19.70;10.40;;;;;;;-1.13;100.00;100593.17;87413;275;22562;-71
2023/12/15 07:20:41;;;;;;;16.90;11.30;;;;;;;-1.10;100.00;100595.03;87402;263;138768;-74
2023/12/15 07:22:43;;;;;;;12.20;10.00;;;;;;;-1.05;100.00;100596.80;87178;272;24189;-72
2023/12/15 07:24:45;;;;;;;18.40;9.30;;;;;;;-1.03;100.00;100598.39;86949;272;137451;-71
2023/12/15 07:26:47;;;;;;;19.40;10.70;;;;;;;-1.02;100.00;100600.77;87143;272;24100;-70
2023/12/15 07:28:49;;;;;;;14.60;10.80;;;;;;;-1.01;100.00;100602.06;87016;276;137472;-72
2023/12/15 07:30:51;;;;;;;20.10;12.40;;;;;;;-0.99;100.00;100602.31;87137;272;22575;-72
2023/12/15 07:32:53;;;;;;;14.70;10.20;;;;;;;-1.01;100.00;100594.29;86973;268;137495;-70
2023/12/15 07:34:56;;;;;;;22.70;12.10;;;;;;;-1.01;100.00;100597.71;86961;273;24164;-73
2023/12/15 07:36:57;;;;;;;15.20;10.80;;;;;;;-0.94;100.00;100606.69;86893;279;137507;-72
2023/12/15 07:38:59;;;;;;;12.90;10.50;;;;;;;-0.95;100.00;100613.57;87112;271;24266;-74
2023/12/15 07:41:01;;;;;;;19.60;11.70;;;;;;;-0.94;100.00;100616.99;87052;272;140034;-71
2023/12/15 07:43:04;;;;;;;20.60;12.10;;;;;;;-0.89;100.00;100626.91;87133;276;22648;-71
2023/12/15 07:45:06;;;;;;;14.90;9.80;;;;;;;-0.85;100.00;100627.66;87035;272;137017;-70
2023/12/15 07:47:08;;;;;;;19.80;11.70;;;;;;;-0.81;100.00;100631.95;87291;267;25231;-71
2023/12/15 07:49:10;;;;;;;18.20;12.50;;;;;;;-0.80;100.00;100636.54;87111;276;137462;-69
2023/12/15 07:51:20;;;;;;;13.20;10.90;;;;;;;-0.78;100.00;100640.78;87183;272;22571;-74
2023/12/15 07:53:22;;;;;;;15.20;10.60;;;;;;;-0.74;100.00;100639.66;87041;275;138753;-71
2023/12/15 07:55:24;;;;;;;17.20;12.10;;;;;;;-0.71;100.00;100642.40;87114;279;23741;-71
2023/12/15 07:57:26;;;;;;;17.10;11.30;;;;;;;-0.73;100.00;100642.03;86981;279;136995;-73
2023/12/15 07:59:27;;;;;;;17.50;10.90;;;;;;;-0.70;100.00;100652.44;87133;275;24068;-71
2023/12/15 08:01:29;;;;;;;24.20;11.80;;;;;;;-0.69;100.00;100653.77;86944;272;137408;-71
2023/12/15 08:03:32;;;;;;;15.90;12.50;;;;;;;-0.66;100.00;100659.30;87102;268;25136;-72
2023/12/15 08:05:35;;;;;;;15.80;10.60;;;;;;;-0.65;100.00;100669.52;86943;272;137632;-71
2023/12/15 08:07:38;;;;;;;17.00;11.20;;;;;;;-0.65;100.00;100670.98;87243;272;22564;-72
2023/12/15 08:09:40;;;;;;;20.00;12.50;;;;;;;-0.66;100.00;100669.94;87009;280;137436;-71
2023/12/15 08:11:42;;;;;;;17.60;12.60;;;;;;;-0.60;100.00;100671.63;87132;272;22722;-69
2023/12/15 08:13:45;;;;;;;16.60;10.80;;;;;;;-0.56;100.00;100673.13;86971;272;137250;-74
2023/12/15 08:15:47;;;;;;;15.80;11.80;;;;;;;-0.53;100.00;100677.80;87108;272;22562;-71
2023/12/15 08:17:49;;;;;;;12.50;9.80;;;;;;;-0.52;100.00;100678.56;87027;272;140248;-72
2023/12/15 08:19:52;;;;;;;17.20;12.00;;;;;;;-0.49;100.00;100683.82;87150;271;22778;-70
2023/12/15 08:21:54;;;;;;;17.20;10.30;;;;;;;-0.47;100.00;100693.05;86853;279;137184;-74
2023/12/15 08:23:56;;;;;;;21.70;10.60;;;;;;;-0.43;100.00;100697.65;87187;272;23275;-72
2023/12/15 08:25:58;;;;;;;15.10;11.40;;;;;;;-0.38;100.00;100700.14;87028;268;138127;-71
2023/12/15 08:28:02;;;;;;;22.30;12.50;;;;;;;-0.34;100.00;100699.83;87063;279;23993;-70
2023/12/15 08:30:07;;;;;;;16.90;12.60;;;;;;;-0.29;100.00;100699.29;87127;275;25343;-72
2023/12/15 08:32:09;;;;;;;11.30;10.10;;;;;;;-0.32;100.00;100690.14;86861;279;137584;-72
2023/12/15 08:34:11;;;;;;;16.10;12.70;;;;;;;-0.22;100.00;100704.91;87888;275;22577;-72
2023/12/15 08:36:13;;;;;;;15.10;12.00;;;;;;;-0.20;100.00;100710.33;87036;272;137559;-73
2023/12/15 08:38:15;;;;;;;16.70;11.60;;;;;;;-0.18;100.00;100712.89;88022;268;22574;-70
2023/12/15 08:40:18;;;;;;;15.80;11.90;;;;;;;-0.18;100.00;100718.45;87219;271;137499;-72
2023/12/15 08:44:48;;;;;;;17.90;12.10;;;;;;;-0.17;100.00;100720.27;85010;301;605056;-72
2023/12/15 08:46:50;;;;;;;16.20;11.80;;;;;;;-0.13;100.00;100728.05;86362;291;25280;-71
2023/12/15 08:48:52;;;;;;;20.00;13.20;;;;;;;-0.06;100.00;100725.23;86163;287;136580;-74
2023/12/15 08:50:54;;;;;;;21.00;12.80;;;;;;;-0.02;100.00;100724.46;86143;291;22599;-74
2023/12/15 08:52:56;;;;;;;16.70;12.50;;;;;;;0.02;100.00;100724.73;86118;288;138234;-73
2023/12/15 08:54:59;;;;;;;13.90;11.30;;;;;;;0.06;100.00;100730.04;85883;292;23294;-74
2023/12/15 08:57:01;;;;;;;16.50;11.80;;;;;;;0.09;100.00;100733.96;86251;291;138060;-69
2023/12/15 08:59:04;;;;;;;17.30;9.90;;;;;;;0.13;100.00;100738.25;86150;283;280322;-72
2023/12/15 09:01:06;;;;;;;21.30;11.70;;;;;;;0.17;100.00;100744.92;86196;289;136624;-71
2023/12/15 09:03:08;;;;;;;17.70;11.20;;;;;;;0.27;100.00;100743.18;86313;285;23285;-71
2023/12/15 09:05:11;;;;;;;19.70;12.40;;;;;;;0.32;100.00;100743.51;86183;285;136736;-73
2023/12/15 09:07:32;;;;;;;19.60;11.80;;;;;;;0.37;100.00;100741.40;86282;288;22584;-75
2023/12/15 09:09:35;;;;;;;19.90;10.00;;;;;;;0.37;100.00;100747.34;86272;288;136891;-74
2023/12/15 09:11:37;;;;;;;18.50;11.10;;;;;;;0.35;100.00;100743.77;86387;285;22587;-69
2023/12/15 09:13:39;;;;;;;17.40;11.50;;;;;;;0.34;100.00;100752.48;86167;289;136618;-70
2023/12/15 09:15:43;;;;;;;13.00;9.60;;;;;;;0.33;100.00;100755.15;86152;288;26137;-70
2023/12/15 09:17:46;;;;;;;14.60;9.60;;;;;;;0.36;100.00;100755.31;86143;281;136493;-70
2023/12/15 09:19:48;;;;;;;13.50;10.00;;;;;;;0.38;100.00;100768.05;86488;289;22580;-69